createdAt,value
2022-11-16T00:00:15.874Z,10.70
2022-11-16T00:02:42.794Z,10.60
2022-11-16T00:05:09.791Z,10.60
2022-11-16T00:07:36.689Z,10.50
2022-11-16T00:10:03.722Z,10.50
2022-11-16T00:12:30.742Z,10.50
2022-11-16T00:14:57.594Z,10.50
2022-11-16T00:17:24.367Z,10.40
2022-11-16T00:19:51.265Z,10.40
2022-11-16T00:22:18.039Z,10.40
2022-11-16T00:24:44.868Z,10.40
2022-11-16T00:27:11.673Z,10.40
2022-11-16T00:29:38.420Z,10.30
2022-11-16T00:32:06.341Z,10.30
2022-11-16T00:34:33.336Z,10.30
2022-11-16T00:37:03.307Z,10.20
2022-11-16T00:39:31.315Z,10.20
2022-11-16T00:41:58.128Z,10.20
2022-11-16T00:44:25.004Z,10.20
2022-11-16T00:46:51.942Z,10.20
2022-11-16T00:49:18.908Z,10.20
2022-11-16T00:51:45.861Z,10.20
2022-11-16T00:54:12.798Z,10.10
2022-11-16T00:56:40.259Z,10.00
2022-11-16T00:59:07.495Z,10.00
2022-11-16T01:01:34.432Z,10.00
2022-11-16T01:04:01.850Z,10.00
2022-11-16T01:06:28.687Z,10.00
2022-11-16T01:08:55.580Z,9.90
2022-11-16T01:11:42.202Z,9.90
2022-11-16T01:14:09.696Z,9.80
2022-11-16T01:16:36.508Z,9.80
2022-11-16T01:19:03.815Z,9.80
2022-11-16T01:21:30.688Z,9.80
2022-11-16T01:23:57.519Z,9.80
2022-11-16T01:26:24.594Z,9.80
2022-11-16T01:28:52.743Z,9.80
2022-11-16T01:31:20.998Z,9.70
2022-11-16T01:33:50.972Z,9.80
2022-11-16T01:36:24.445Z,9.70
2022-11-16T01:38:52.408Z,9.70
2022-11-16T01:41:23.891Z,9.80
2022-11-16T01:43:54.095Z,9.70
2022-11-16T01:46:23.196Z,9.70
2022-11-16T01:48:54.543Z,9.70
2022-11-16T01:51:22.546Z,9.60
2022-11-16T01:53:49.807Z,9.60
2022-11-16T01:56:18.113Z,9.60
2022-11-16T01:58:56.977Z,9.60
2022-11-16T02:01:26.127Z,9.60
2022-11-16T02:03:56.842Z,9.60
2022-11-16T02:06:27.044Z,9.60
2022-11-16T02:09:39.470Z,9.60
2022-11-16T02:12:22.768Z,9.50
2022-11-16T02:14:52.801Z,9.50
2022-11-16T02:17:44.722Z,9.50
2022-11-16T02:20:34.199Z,9.50
2022-11-16T02:23:26.227Z,9.50
2022-11-16T02:25:52.976Z,9.40
2022-11-16T02:28:29.055Z,9.50
2022-11-16T02:30:57.953Z,9.50
2022-11-16T02:33:27.930Z,9.50
2022-11-16T02:35:56.441Z,9.60
2022-11-16T02:38:25.851Z,9.50
2022-11-16T02:40:55.100Z,9.50
2022-11-16T02:43:30.079Z,9.40
2022-11-16T02:45:59.647Z,9.40
2022-11-16T02:48:30.193Z,9.40
2022-11-16T02:50:57.407Z,9.30
2022-11-16T02:53:25.248Z,9.30
2022-11-16T02:55:56.325Z,9.20
2022-11-16T02:58:25.000Z,9.30
2022-11-16T03:01:00.487Z,9.20
2022-11-16T03:03:32.136Z,9.20
2022-11-16T03:06:02.041Z,9.20
2022-11-16T03:08:32.566Z,9.20
2022-11-16T03:11:22.749Z,9.10
2022-11-16T03:13:52.190Z,9.10
2022-11-16T03:16:22.160Z,9.10
2022-11-16T03:18:51.934Z,9.10
2022-11-16T03:21:28.864Z,9.10
2022-11-16T03:23:55.769Z,9.00
2022-11-16T03:26:26.262Z,9.00
2022-11-16T03:29:22.581Z,8.90
2022-11-16T03:31:55.076Z,8.90
2022-11-16T03:34:25.617Z,9.00
2022-11-16T03:36:53.033Z,9.00
2022-11-16T03:39:29.260Z,8.90
2022-11-16T03:41:57.219Z,8.90
2022-11-16T03:44:24.156Z,8.90
2022-11-16T03:46:51.030Z,8.90
2022-11-16T03:49:20.592Z,8.80
2022-11-16T03:51:47.552Z,8.80
2022-11-16T03:54:15.097Z,8.70
2022-11-16T03:56:41.947Z,8.70
2022-11-16T03:59:09.130Z,8.70
2022-11-16T04:01:39.198Z,8.70
2022-11-16T04:04:30.275Z,8.70
2022-11-16T04:07:16.232Z,8.70
2022-11-16T04:10:01.821Z,8.70
2022-11-16T04:12:47.694Z,8.70
2022-11-16T04:15:33.090Z,8.70
2022-11-16T04:18:19.676Z,8.70
2022-11-16T04:21:05.546Z,8.70
2022-11-16T04:23:51.048Z,8.70
2022-11-16T04:26:18.045Z,8.70
2022-11-16T04:28:45.046Z,8.70
2022-11-16T04:31:30.940Z,8.70
2022-11-16T04:34:22.264Z,8.70
2022-11-16T04:37:31.120Z,8.60
2022-11-16T04:39:58.039Z,8.60
2022-11-16T04:42:25.000Z,8.50
2022-11-16T04:45:10.746Z,8.60
2022-11-16T04:47:44.843Z,8.60
2022-11-16T04:50:13.155Z,8.60
2022-11-16T04:52:41.244Z,8.60
2022-11-16T04:55:11.227Z,8.60
2022-11-16T04:57:38.210Z,8.60
2022-11-16T05:00:06.074Z,8.60
2022-11-16T05:02:34.921Z,8.60
2022-11-16T05:05:01.652Z,8.50
2022-11-16T05:07:29.934Z,8.50
2022-11-16T05:10:05.372Z,8.50
2022-11-16T05:12:33.073Z,8.50
2022-11-16T05:15:02.227Z,8.50
2022-11-16T05:17:32.282Z,8.50
2022-11-16T05:20:19.182Z,8.50
2022-11-16T05:22:54.730Z,8.50
2022-11-16T05:25:22.836Z,8.50
2022-11-16T05:27:49.729Z,8.40
2022-11-16T05:30:16.742Z,8.40
2022-11-16T05:32:43.729Z,8.40
2022-11-16T05:35:11.360Z,8.50
2022-11-16T05:37:38.547Z,8.40
2022-11-16T05:40:05.622Z,8.40
2022-11-16T05:42:41.699Z,8.40
2022-11-16T05:45:08.929Z,8.40
2022-11-16T05:47:35.814Z,8.40
2022-11-16T05:50:03.558Z,8.40
2022-11-16T05:53:01.411Z,8.30
2022-11-16T05:55:29.539Z,8.40
2022-11-16T05:57:56.445Z,8.40
2022-11-16T06:00:23.374Z,8.40
2022-11-16T06:02:52.812Z,8.40
2022-11-16T06:05:29.129Z,8.30
2022-11-16T06:07:57.765Z,8.30
2022-11-16T06:10:24.742Z,8.30
2022-11-16T06:12:53.291Z,8.20
2022-11-16T06:15:20.085Z,8.20
2022-11-16T06:17:48.102Z,8.10
2022-11-16T06:20:16.263Z,8.10
2022-11-16T06:22:58.195Z,8.10
2022-11-16T06:25:30.805Z,8.20
2022-11-16T06:27:58.197Z,8.20
2022-11-16T06:30:25.554Z,8.20
2022-11-16T06:32:53.288Z,8.20
2022-11-16T06:35:20.073Z,8.20
2022-11-16T06:37:46.997Z,8.20
2022-11-16T06:40:14.063Z,8.30
2022-11-16T06:46:22.213Z,8.20
2022-11-16T06:48:49.103Z,8.30
2022-11-16T06:51:17.412Z,8.20
2022-11-16T06:53:44.149Z,8.20
2022-11-16T06:56:12.961Z,8.30
2022-11-16T06:58:44.296Z,8.20
2022-11-16T07:01:13.440Z,8.30
2022-11-16T07:03:42.415Z,8.30
2022-11-16T07:06:10.618Z,8.20
2022-11-16T07:08:39.453Z,8.20
2022-11-16T07:11:07.008Z,8.20
2022-11-16T07:13:35.540Z,8.20
2022-11-16T07:16:04.703Z,8.20
2022-11-16T07:18:39.136Z,8.30
2022-11-16T07:21:06.821Z,8.30
2022-11-16T07:23:33.755Z,8.30
2022-11-16T07:26:01.590Z,8.30
2022-11-16T07:28:36.887Z,8.30
2022-11-16T07:31:05.422Z,8.30
2022-11-16T07:33:33.079Z,8.30
2022-11-16T07:36:29.271Z,8.20
2022-11-16T07:38:56.616Z,8.20
2022-11-16T07:41:24.556Z,8.20
2022-11-16T07:44:10.875Z,8.30
2022-11-16T07:46:48.774Z,8.20
2022-11-16T07:49:17.815Z,8.20
2022-11-16T07:51:52.452Z,8.10
2022-11-16T07:54:37.184Z,8.10
2022-11-16T07:57:04.212Z,7.90
2022-11-16T07:59:31.045Z,7.90
2022-11-16T08:01:59.464Z,8.00
2022-11-16T08:04:27.597Z,8.00
2022-11-16T08:06:54.696Z,8.00
2022-11-16T08:09:22.350Z,8.00
2022-11-16T08:11:51.706Z,7.90
2022-11-16T08:14:19.281Z,7.90
2022-11-16T08:16:48.679Z,7.90
2022-11-16T08:19:17.216Z,8.00
2022-11-16T08:21:45.788Z,8.00
2022-11-16T08:24:14.945Z,8.10
2022-11-16T08:26:43.580Z,8.10
2022-11-16T08:29:14.878Z,8.10
2022-11-16T08:31:46.642Z,8.10
2022-11-16T08:34:30.745Z,8.10
2022-11-16T08:37:01.435Z,8.10
2022-11-16T08:39:41.702Z,8.00
2022-11-16T08:42:09.423Z,8.10
2022-11-16T08:44:37.291Z,8.10
2022-11-16T08:47:08.776Z,8.10
2022-11-16T08:49:48.281Z,8.10
2022-11-16T08:52:16.916Z,8.10
2022-11-16T08:54:44.071Z,8.10
2022-11-16T08:57:11.197Z,8.10
2022-11-16T08:59:39.866Z,8.00
2022-11-16T09:02:10.760Z,8.00
2022-11-16T09:04:37.593Z,8.00
2022-11-16T09:07:04.515Z,8.10
2022-11-16T09:09:31.354Z,8.00
2022-11-16T09:11:58.119Z,8.00
2022-11-16T09:14:24.939Z,8.00
2022-11-16T09:16:52.261Z,8.00
2022-11-16T09:19:20.435Z,8.00
2022-11-16T09:21:47.265Z,8.00
2022-11-16T09:24:13.987Z,8.00
2022-11-16T09:26:40.788Z,8.00
2022-11-16T09:29:07.694Z,8.10
2022-11-16T09:31:34.805Z,8.10
2022-11-16T09:34:02.818Z,8.00
2022-11-16T09:36:29.651Z,8.00
2022-11-16T09:39:28.803Z,8.10
2022-11-16T09:41:52.547Z,8.00
2022-11-16T09:44:39.659Z,8.00
2022-11-16T09:47:09.749Z,8.00
2022-11-16T09:49:39.607Z,8.00
2022-11-16T09:52:10.142Z,8.00
2022-11-16T09:54:40.364Z,8.00
2022-11-16T09:57:12.539Z,8.00
2022-11-16T09:59:41.942Z,8.10
2022-11-16T10:02:14.900Z,8.00
2022-11-16T10:04:58.012Z,8.10
2022-11-16T10:07:33.635Z,8.10
2022-11-16T10:10:00.504Z,8.10
2022-11-16T10:12:27.443Z,8.00
2022-11-16T10:14:54.217Z,7.90
2022-11-16T10:17:36.296Z,7.90
2022-11-16T10:20:19.194Z,7.80
2022-11-16T10:22:53.388Z,7.90
2022-11-16T10:25:22.105Z,7.90
2022-11-16T10:28:03.747Z,7.90
2022-11-16T10:30:34.100Z,7.90
2022-11-16T10:33:13.079Z,7.90
2022-11-16T10:35:56.001Z,8.00
2022-11-16T10:38:28.327Z,8.00
2022-11-16T10:40:57.055Z,8.00
2022-11-16T10:43:28.637Z,8.00
2022-11-16T10:45:55.963Z,8.00
2022-11-16T10:48:29.271Z,8.00
2022-11-16T10:50:56.108Z,7.90
2022-11-16T10:53:27.375Z,7.80
2022-11-16T10:56:13.019Z,7.70
2022-11-16T10:58:52.509Z,7.70
2022-11-16T11:01:27.750Z,7.80
2022-11-16T11:03:54.583Z,7.90
2022-11-16T11:06:25.895Z,7.90
2022-11-16T11:08:52.852Z,7.90
2022-11-16T11:11:39.838Z,7.90
2022-11-16T11:14:14.088Z,7.90
2022-11-16T11:16:41.596Z,7.90
2022-11-16T11:19:18.903Z,7.90
2022-11-16T11:21:47.004Z,7.80
2022-11-16T11:24:42.738Z,7.90
2022-11-16T11:27:03.319Z,7.90
2022-11-16T11:29:37.946Z,7.80
2022-11-16T11:32:06.402Z,7.90
2022-11-16T11:34:40.885Z,7.80
2022-11-16T11:37:13.729Z,7.80
2022-11-16T11:39:40.705Z,7.80
2022-11-16T11:42:13.741Z,7.80
2022-11-16T11:44:44.857Z,7.80
2022-11-16T11:47:50.796Z,7.90
2022-11-16T11:50:11.080Z,7.80
2022-11-16T11:52:39.571Z,7.90
2022-11-16T11:55:07.985Z,7.90
2022-11-16T11:57:40.195Z,8.00
2022-11-16T12:00:07.639Z,8.00
2022-11-16T12:02:38.350Z,8.10
2022-11-16T12:05:08.490Z,8.20
2022-11-16T12:07:51.658Z,8.10
2022-11-16T12:10:27.578Z,8.10
2022-11-16T12:13:13.324Z,8.20
2022-11-16T12:16:02.462Z,8.20
2022-11-16T12:18:32.285Z,8.20
2022-11-16T12:21:09.929Z,8.10
2022-11-16T12:23:43.002Z,8.10
2022-11-16T12:26:22.216Z,8.20
2022-11-16T12:29:07.785Z,8.20
2022-11-16T12:31:43.716Z,8.10
2022-11-16T12:34:10.689Z,8.10
2022-11-16T12:36:37.516Z,8.20
2022-11-16T12:39:24.707Z,8.10
2022-11-16T12:42:10.551Z,8.10
2022-11-16T12:44:43.639Z,8.20
2022-11-16T12:47:10.497Z,8.20
2022-11-16T12:49:46.644Z,8.20
2022-11-16T12:52:27.606Z,8.30
2022-11-16T12:55:28.671Z,8.30
2022-11-16T12:58:08.541Z,8.30
2022-11-16T13:00:45.327Z,8.30
2022-11-16T13:03:16.301Z,8.30
2022-11-16T13:05:43.282Z,8.30
2022-11-16T13:08:19.972Z,8.30
2022-11-16T13:10:49.136Z,8.40
2022-11-16T13:13:36.771Z,8.30
2022-11-16T13:16:08.089Z,8.30
2022-11-16T13:18:42.445Z,8.40
2022-11-16T13:21:15.542Z,8.40
2022-11-16T13:24:01.273Z,8.40
2022-11-16T13:26:28.221Z,8.40
2022-11-16T13:29:01.294Z,8.50
2022-11-16T13:31:34.587Z,8.50
2022-11-16T13:34:03.164Z,8.50
2022-11-16T13:36:43.150Z,8.50
2022-11-16T13:39:11.163Z,8.50
2022-11-16T13:41:39.146Z,8.50
2022-11-16T13:44:12.004Z,8.50
2022-11-16T13:46:56.282Z,8.50
2022-11-16T13:49:33.041Z,8.60
2022-11-16T13:52:17.304Z,8.60
2022-11-16T13:54:50.364Z,8.60
2022-11-16T13:57:23.644Z,8.50
2022-11-16T13:59:55.431Z,8.40
2022-11-16T14:02:33.665Z,8.40
2022-11-16T14:05:01.825Z,8.40
2022-11-16T14:07:33.353Z,8.40
2022-11-16T14:10:02.044Z,8.40
2022-11-16T14:12:52.847Z,8.40
2022-11-16T14:15:23.847Z,8.40
2022-11-16T14:17:53.900Z,8.40
2022-11-16T14:20:44.188Z,8.40
2022-11-16T14:23:20.164Z,8.40
2022-11-16T14:25:47.095Z,8.40
2022-11-16T14:28:13.937Z,8.50
2022-11-16T14:30:59.530Z,8.50
2022-11-16T14:33:32.438Z,8.50
2022-11-16T14:36:00.193Z,8.40
2022-11-16T14:38:32.082Z,8.40
2022-11-16T14:41:00.244Z,8.40
2022-11-16T14:43:33.406Z,8.40
2022-11-16T14:46:03.253Z,8.40
2022-11-16T14:48:30.948Z,8.40
2022-11-16T14:51:13.218Z,8.30
2022-11-16T14:53:41.642Z,8.30
2022-11-16T14:56:13.587Z,8.30
2022-11-16T14:58:49.987Z,8.30
2022-11-16T15:01:17.922Z,8.30
2022-11-16T15:03:56.246Z,8.30
2022-11-16T15:06:24.697Z,8.30
2022-11-16T15:08:57.338Z,8.30
2022-11-16T15:11:50.811Z,8.30
2022-11-16T15:14:19.142Z,8.30
2022-11-16T15:16:53.708Z,8.30
2022-11-16T15:19:21.029Z,8.30
2022-11-16T15:21:52.037Z,8.20
2022-11-16T15:24:30.390Z,8.20
2022-11-16T15:27:10.863Z,8.20
2022-11-16T15:29:37.937Z,8.20
2022-11-16T15:32:06.109Z,8.20
2022-11-16T15:34:33.092Z,8.10
2022-11-16T15:36:59.863Z,8.10
2022-11-16T15:39:28.599Z,8.20
2022-11-16T15:42:02.113Z,8.20
2022-11-16T15:44:30.949Z,8.20
2022-11-16T15:46:57.937Z,8.20
2022-11-16T15:49:29.224Z,8.10
2022-11-16T15:51:59.578Z,8.00
2022-11-16T15:54:28.714Z,7.90
2022-11-16T15:56:56.838Z,7.90
2022-11-16T15:59:28.644Z,7.90
2022-11-16T16:01:56.829Z,7.90
2022-11-16T16:04:24.299Z,8.00
2022-11-16T16:06:58.619Z,8.00
2022-11-16T16:09:25.579Z,8.00
2022-11-16T16:11:53.458Z,8.00
2022-11-16T16:14:31.062Z,8.00
2022-11-16T16:16:59.034Z,8.00
2022-11-16T16:19:40.359Z,8.00
2022-11-16T16:22:13.256Z,7.90
2022-11-16T16:24:43.165Z,7.90
2022-11-16T16:27:15.043Z,7.90
2022-11-16T16:29:42.090Z,7.90
2022-11-16T16:32:27.000Z,7.90
2022-11-16T16:34:54.894Z,7.80
2022-11-16T16:37:22.385Z,7.80
2022-11-16T16:39:49.245Z,7.80
2022-11-16T16:42:17.049Z,7.80
2022-11-16T16:44:44.989Z,7.80
2022-11-16T16:47:11.920Z,7.70
2022-11-16T16:49:39.254Z,7.70
2022-11-16T16:52:06.728Z,7.80
2022-11-16T16:54:33.728Z,7.90
2022-11-16T16:57:02.536Z,7.90
2022-11-16T16:59:32.460Z,7.90
2022-11-16T17:01:59.824Z,7.90
2022-11-16T17:04:26.866Z,7.90
2022-11-16T17:06:53.947Z,7.90
2022-11-16T17:09:20.926Z,7.90
2022-11-16T17:11:48.212Z,7.90
2022-11-16T17:14:14.993Z,7.80
2022-11-16T17:16:42.013Z,7.80
2022-11-16T17:19:08.884Z,7.80
2022-11-16T17:21:35.863Z,7.70
2022-11-16T17:24:02.817Z,7.70
2022-11-16T17:26:29.936Z,7.70
2022-11-16T17:28:57.664Z,7.80
2022-11-16T17:31:25.165Z,7.70
2022-11-16T17:33:52.381Z,7.70
2022-11-16T17:36:19.492Z,7.80
2022-11-16T17:38:46.429Z,7.80
2022-11-16T17:41:16.444Z,7.70
2022-11-16T17:43:44.192Z,7.70
2022-11-16T17:46:12.402Z,7.70
2022-11-16T17:48:40.239Z,7.60
2022-11-16T17:51:07.373Z,7.50
2022-11-16T17:53:35.715Z,7.50
2022-11-16T17:56:03.532Z,7.60
2022-11-16T17:58:34.182Z,7.60
2022-11-16T18:01:01.196Z,7.60
2022-11-16T18:03:31.232Z,7.60
2022-11-16T18:06:02.909Z,7.50
2022-11-16T18:08:30.648Z,7.50
2022-11-16T18:10:57.981Z,7.50
2022-11-16T18:13:26.350Z,7.50
2022-11-16T18:15:54.197Z,7.50
2022-11-16T18:18:21.263Z,7.50
2022-11-16T18:20:51.456Z,7.50
2022-11-16T18:23:19.083Z,7.60
2022-11-16T18:25:47.835Z,7.50
2022-11-16T18:28:17.417Z,7.50
2022-11-16T18:30:45.484Z,7.50
2022-11-16T18:33:12.392Z,7.40
2022-11-16T18:35:39.257Z,7.40
2022-11-16T18:38:07.400Z,7.30
2022-11-16T18:40:38.321Z,7.30
2022-11-16T18:43:06.688Z,7.30
2022-11-16T18:45:34.740Z,7.30
2022-11-16T18:48:06.336Z,7.30
2022-11-16T18:50:35.838Z,7.30
2022-11-16T18:53:03.226Z,7.30
2022-11-16T18:55:31.282Z,7.30
2022-11-16T18:58:43.460Z,7.30
2022-11-16T19:01:02.734Z,7.30
2022-11-16T19:03:33.733Z,7.30
2022-11-16T19:06:03.591Z,7.20
2022-11-16T19:08:32.635Z,7.20
2022-11-16T19:11:16.898Z,7.10
2022-11-16T19:13:51.379Z,7.00
2022-11-16T19:16:27.088Z,7.10
2022-11-16T19:18:55.215Z,7.20
2022-11-16T19:21:23.322Z,7.20
2022-11-16T19:23:53.138Z,7.20
2022-11-16T19:26:24.790Z,7.20
2022-11-16T19:29:04.194Z,7.20
2022-11-16T19:31:34.592Z,7.20
2022-11-16T19:34:05.767Z,7.20
2022-11-16T19:36:42.500Z,7.20
2022-11-16T19:39:17.601Z,7.20
2022-11-16T19:41:49.639Z,7.10
2022-11-16T19:44:16.590Z,7.10
2022-11-16T19:46:45.051Z,7.20
2022-11-16T19:49:21.806Z,7.10
2022-11-16T19:51:50.952Z,7.10
2022-11-16T19:54:18.978Z,7.10
2022-11-16T19:56:50.515Z,7.10
2022-11-16T19:59:23.580Z,7.10
2022-11-16T20:01:50.564Z,7.20
2022-11-16T20:04:17.550Z,7.20
2022-11-16T20:06:44.429Z,7.20
2022-11-16T20:09:13.541Z,7.10
2022-11-16T20:11:41.617Z,7.00
2022-11-16T20:14:10.645Z,7.00
2022-11-16T20:16:39.534Z,7.00
2022-11-16T20:19:08.424Z,7.00
2022-11-16T20:21:37.745Z,7.00
2022-11-16T20:24:07.047Z,7.00
2022-11-16T20:26:36.567Z,7.00
2022-11-16T20:29:03.730Z,7.00
2022-11-16T20:31:32.577Z,7.10
2022-11-16T20:34:01.928Z,7.00
2022-11-16T20:36:30.085Z,7.00
2022-11-16T20:39:01.053Z,6.90
2022-11-16T20:41:33.005Z,6.90
2022-11-16T20:44:02.611Z,6.80
2022-11-16T20:46:37.836Z,6.90
2022-11-16T20:49:05.456Z,6.90
2022-11-16T20:51:38.720Z,6.90
2022-11-16T20:54:08.773Z,6.90
2022-11-16T20:56:41.110Z,7.00
2022-11-16T20:59:19.280Z,7.00
2022-11-16T21:01:52.536Z,7.00
2022-11-16T21:04:20.722Z,6.90
2022-11-16T21:06:47.695Z,6.90
2022-11-16T21:09:24.234Z,6.90
2022-11-16T21:12:12.131Z,6.90
2022-11-16T21:14:43.132Z,6.90
2022-11-16T21:17:10.217Z,6.90
2022-11-16T21:19:37.145Z,6.90
2022-11-16T21:22:04.207Z,6.90
2022-11-16T21:24:32.394Z,6.80
2022-11-16T21:26:59.612Z,6.80
2022-11-16T21:29:27.272Z,6.80
2022-11-16T21:31:54.217Z,6.80
2022-11-16T21:34:24.579Z,6.70
2022-11-16T21:36:56.512Z,6.80
2022-11-16T21:39:52.943Z,6.70
2022-11-16T21:42:50.948Z,6.70
2022-11-16T21:45:22.471Z,6.60
2022-11-16T21:47:50.573Z,6.60
2022-11-16T21:50:31.114Z,6.50
2022-11-16T21:53:00.481Z,6.60
2022-11-16T21:55:27.955Z,6.60
2022-11-16T21:57:58.221Z,6.60
2022-11-16T22:00:30.817Z,6.50
2022-11-16T22:02:58.901Z,6.50
2022-11-16T22:05:44.713Z,6.50
2022-11-16T22:08:11.839Z,6.50
2022-11-16T22:10:42.732Z,6.40
2022-11-16T22:13:14.007Z,6.40
2022-11-16T22:16:19.495Z,6.40
2022-11-16T22:18:47.582Z,6.40
2022-11-16T22:21:14.486Z,6.40
2022-11-16T22:23:41.930Z,6.30
2022-11-16T22:26:10.370Z,6.30
2022-11-16T22:28:39.053Z,6.40
2022-11-16T22:31:13.221Z,6.30
2022-11-16T22:33:43.478Z,6.30
2022-11-16T22:36:29.214Z,6.20
2022-11-16T22:39:03.427Z,6.20
2022-11-16T22:41:30.619Z,6.10
2022-11-16T22:43:58.627Z,6.20
2022-11-16T22:46:25.929Z,6.20
2022-11-16T22:48:53.121Z,6.20
2022-11-16T22:51:20.010Z,6.10
2022-11-16T22:53:47.006Z,6.10
2022-11-16T22:56:14.131Z,6.10
2022-11-16T22:58:58.699Z,6.10
2022-11-16T23:01:28.025Z,6.10
2022-11-16T23:03:55.278Z,6.10
2022-11-16T23:06:22.222Z,6.10
2022-11-16T23:08:49.434Z,6.10
2022-11-16T23:11:36.169Z,6.20
2022-11-16T23:14:24.454Z,6.10
2022-11-16T23:16:51.943Z,6.10
2022-11-16T23:19:39.616Z,6.10
2022-11-16T23:22:26.286Z,6.10
2022-11-16T23:25:11.849Z,6.10
2022-11-16T23:27:40.629Z,6.10
2022-11-16T23:30:12.225Z,6.10
2022-11-16T23:32:40.200Z,6.10
2022-11-16T23:35:07.294Z,6.20
2022-11-16T23:37:34.281Z,6.10
2022-11-16T23:40:01.763Z,6.10
2022-11-16T23:42:51.837Z,6.10
2022-11-16T23:45:18.848Z,6.10
2022-11-16T23:47:45.691Z,6.10
2022-11-16T23:50:12.611Z,6.10
2022-11-16T23:52:39.406Z,6.10
2022-11-16T23:55:07.653Z,6.10
2022-11-16T23:57:34.569Z,6.00
